S C — FGF7634 — position and weather

sailwx.info

Track history (hours):
 
Tides and Currents Weather Stations Pressure Air Temp Water Temp Dewpoint Dewpoint Depression Visibility Wind Speed Wind Dir Waves Ship Positions

S C

Last reported at 2016-Aug-24 06:33 UTC. Time now 2016-Aug-24 06:49 UTC.
Position N 49°29' E 000°07'.

; draft 1 m.

Type: Pilot. MMSI: 227001820.

Date/timePositionNaut miles runAvg speedWind from/ knotsBaromVisibWave heightAir tempDewpointWater temp
2016-Aug-24 06:33N 49°29' E 000°07'0 0.0
2016-Aug-24 04:33N 49°29' E 000°07'8 8.3
2016-Aug-24 03:34N 49°32' W 000°05'8 8.2
2016-Aug-24 02:33N 49°29' E 000°07'3 2.7
2016-Aug-24 01:34N 49°30' E 000°03'3 2.7
2016-Aug-24 00:34N 49°29' E 000°07'1 0.8
2016-Aug-23 23:33N 49°29' E 000°06'0 0.3
2016-Aug-23 22:34N 49°29' E 000°05'0 0.2
2016-Aug-23 21:33N 49°29' E 000°05'1 0.9
2016-Aug-23 20:33N 49°29' E 000°07'2 1.6
2016-Aug-23 19:34N 49°29' E 000°04'2 1.6
2016-Aug-23 18:33N 49°29' E 000°07'4 3.6
2016-Aug-23 17:33N 49°30' E 000°01'4 3.6
2016-Aug-23 16:34N 49°29' E 000°07'0 0.0
2016-Aug-23 15:33N 49°29' E 000°07'0 0.0
2016-Aug-23 14:33N 49°29' E 000°07'0 0.0
2016-Aug-23 13:33N 49°29' E 000°07'0 0.0
2016-Aug-23 12:34N 49°29' E 000°07'8 8.0
2016-Aug-23 11:33N 49°32' W 000°05'8 8.1
2016-Aug-23 10:33N 49°29' E 000°07'0 0.0
2016-Aug-23 09:33N 49°29' E 000°07'0 0.0
2016-Aug-23 08:33N 49°29' E 000°07'4 3.6
2016-Aug-23 07:34N 49°30' E 000°01'4 3.6
2016-Aug-23 06:33N 49°29' E 000°07'0 0.0
2016-Aug-23 05:33N 49°29' E 000°07'0 0.4
2016-Aug-23 04:33N 49°29' E 000°06'9 9.5
2016-Aug-23 03:34N 49°32' W 000°08'4 3.7
2016-Aug-23 02:34N 49°31' W 000°02'6 6.0
2016-Aug-23 01:33N 49°29' E 000°07'0 0.0
2016-Aug-23 00:33N 49°29' E 000°07'0 0.0
2016-Aug-22 23:33N 49°29' E 000°07'0 0.0
2016-Aug-22 22:33N 49°29' E 000°07'0 0.1
2016-Aug-22 21:33N 49°29' E 000°07'4 4.1
2016-Aug-22 20:33N 49°30' E 000°01'4 4.2
2016-Aug-22 19:34N 49°29' E 000°07'0 0.0
2016-Aug-22 18:33N 49°29' E 000°07'0 0.0
2016-Aug-22 17:33N 49°29' E 000°07'1 0.6
2016-Aug-22 16:33N 49°29' E 000°06'6 6.0
2016-Aug-22 15:34N 49°31' W 000°03'7 6.5
2016-Aug-22 14:33N 49°29' E 000°07'1 0.6
2016-Aug-22 13:34N 49°29' E 000°06'1 0.6
2016-Aug-22 12:33N 49°29' E 000°07'1 1.4
2016-Aug-22 11:33N 49°29' E 000°05'1 1.4
2016-Aug-22 10:33N 49°29' E 000°07'8 7.6
2016-Aug-22 09:34N 49°32' W 000°04'8 7.6
2016-Aug-22 08:33N 49°29' E 000°07'3 2.7
2016-Aug-22 07:33N 49°30' E 000°03'3 2.7
2016-Aug-22 06:34N 49°29' E 000°07'0 0.1
2016-Aug-22 05:34N 49°29' E 000°07'7 7.4
2016-Aug-22 04:33N 49°31' W 000°04'6 6.0
2016-Aug-22 03:33N 49°29' E 000°05'6 6.0
2016-Aug-22 02:34N 49°31' W 000°04'6 6.1
2016-Aug-22 01:33N 49°29' E 000°05'1 1.3
2016-Aug-22 00:33N 49°29' E 000°07'9 8.8
2016-Aug-21 23:34N 49°32' W 000°06'6 6.3
2016-Aug-21 22:33N 49°30' E 000°03'1 0.9
2016-Aug-21 21:33N 49°29' E 000°04'2 1.6
2016-Aug-21 20:33N 49°29' E 000°07'1 1.2
2016-Aug-21 19:34N 49°29' E 000°05'1 0.9
2016-Aug-21 18:34N 49°29' E 000°06'3 3.2
2016-Aug-21 17:33N 49°30' E 000°02'3 3.5
2016-Aug-21 16:34N 49°29' E 000°07'4 4.2
2016-Aug-21 15:33N 49°30' E 000°01'4 4.2
2016-Aug-21 14:33N 49°29' E 000°07'0 0.0
2016-Aug-21 13:33N 49°29' E 000°07'0 0.0
2016-Aug-21 12:33N 49°29' E 000°07'8 8.1
2016-Aug-21 11:34N 49°31' W 000°05'4 4.4
2016-Aug-21 10:33N 49°30' E 000°01'4 3.9
2016-Aug-21 09:34N 49°34' W 000°01'7 6.8
2016-Aug-21 08:33N 49°29' E 000°07'0 0.0
2016-Aug-21 07:33N 49°29' E 000°07'4 4.1
2016-Aug-21 06:34N 49°30' E 000°01'4 4.0
2016-Aug-21 05:33N 49°29' E 000°07'0 0.0
2016-Aug-21 04:33N 49°29' E 000°07'0 0.0
2016-Aug-21 03:33N 49°29' E 000°07'7 7.1
2016-Aug-21 02:33N 49°31' W 000°04'3 3.2
2016-Aug-21 01:34N 49°30' E 000°01'2 2.1
2016-Aug-21 00:33N 49°29' E 000°04'2 1.9
2016-Aug-20 23:33N 49°29' E 000°07'0 0.0
2016-Aug-20 22:33N 49°29' E 000°07'0 0.0
2016-Aug-20 21:33N 49°29' E 000°07'6 6.0
2016-Aug-20 20:33N 49°31' W 000°02'6 6.0
2016-Aug-20 19:33N 49°29' E 000°07'0 0.0
2016-Aug-20 18:33N 49°29' E 000°07'2 2.4
2016-Aug-20 17:33N 49°30' E 000°03'2 2.4
2016-Aug-20 16:33N 49°29' E 000°07'0 0.0
2016-Aug-20 15:33N 49°29' E 000°07'0 0.0
2016-Aug-20 14:33N 49°29' E 000°07'0 0.0
2016-Aug-20 13:33N 49°29' E 000°07'0 0.0
2016-Aug-20 12:33N 49°29' E 000°07'2 1.6
2016-Aug-20 11:33N 49°28' E 000°09'2 1.6
2016-Aug-20 10:34N 49°29' E 000°07'1 1.4
2016-Aug-20 09:33N 49°29' E 000°05'1 1.4
2016-Aug-20 08:33N 49°29' E 000°07'2 1.5
2016-Aug-20 07:34N 49°29' E 000°04'2 1.5
2016-Aug-20 06:33N 49°29' E 000°07'5 4.9
2016-Aug-20 05:34N 49°30' W 000°00'5 4.9
2016-Aug-20 04:33N 49°29' E 000°07'5 4.8
2016-Aug-20 03:34N 49°30' W 000°00'5 4.8
2016-Aug-20 02:34N 49°29' E 000°07'0 0.0
2016-Aug-20 01:33N 49°29' E 000°07'0 0.0
2016-Aug-20 00:33N 49°29' E 000°07'0 0.1
2016-Aug-19 23:33N 49°29' E 000°07'0 0.1
2016-Aug-19 22:33N 49°29' E 000°07'6 6.5
2016-Aug-19 21:34N 49°31' W 000°03'6 6.4
2016-Aug-19 20:33N 49°29' E 000°07'0 0.0
2016-Aug-19 19:33N 49°29' E 000°07'0 0.0
2016-Aug-19 18:33N 49°29' E 000°07'2 1.7
2016-Aug-19 17:34N 49°29' E 000°04'2 1.7
2016-Aug-19 16:33N 49°29' E 000°07'0 0.0
2016-Aug-19 15:33N 49°29' E 000°07'0 0.0
2016-Aug-19 14:33N 49°29' E 000°07'9 8.5
2016-Aug-19 13:34N 49°32' W 000°06'9 8.5
2016-Aug-19 12:33N 49°29' E 000°07'0 0.0
2016-Aug-19 11:34N 49°29' E 000°07'0 0.0
2016-Aug-19 10:33N 49°29' E 000°07'0 0.0
2016-Aug-19 09:33N 49°29' E 000°07'0 0.0
2016-Aug-19 08:33N 49°29' E 000°07'0 0.0
2016-Aug-19 07:33N 49°29' E 000°07'5 4.7
2016-Aug-19 06:33N 49°30' W 000°00'4 4.4
2016-Aug-19 05:33N 49°29' E 000°06'0 0.3
2016-Aug-19 04:33N 49°29' E 000°07'0 0.0
2016-Aug-19 03:33N 49°29' E 000°07'0 0.0
2016-Aug-19 02:33N 49°29' E 000°07'3 2.6
2016-Aug-19 01:34N 49°30' E 000°03'3 2.6
2016-Aug-19 00:33N 49°29' E 000°07'0 0.0
2016-Aug-18 23:33N 49°29' E 000°07'0 0.0
2016-Aug-18 22:33N 49°29' E 000°07'5 4.8
2016-Aug-18 21:33N 49°31' E 000°00'5 4.8
2016-Aug-18 20:34N 49°29' E 000°07'0 0.0
2016-Aug-18 19:33N 49°29' E 000°07'0 0.0
2016-Aug-18 18:33N 49°29' E 000°07'8 8.4
2016-Aug-18 17:34N 49°31' W 000°06'8 8.4
2016-Aug-18 16:34N 49°29' E 000°07'0 0.0
2016-Aug-18 15:34N 49°29' E 000°07'0 0.0
2016-Aug-18 14:34N 49°29' E 000°07'0 0.0
2016-Aug-18 13:34N 49°29' E 000°07'4 4.3
2016-Aug-18 12:34N 49°30' E 000°00'4 4.3
2016-Aug-18 11:33N 49°29' E 000°07'0 0.0
2016-Aug-18 10:33N 49°29' E 000°07'1 0.6
2016-Aug-18 09:33N 49°29' E 000°06'1 0.6
2016-Aug-18 08:33N 49°29' E 000°07'0 0.0
2016-Aug-18 07:34N 49°29' E 000°07'0 0.0
2016-Aug-18 06:33N 49°29' E 000°07'0 0.0
2016-Aug-18 05:34N 49°29' E 000°07'0 0.0
2016-Aug-18 04:34N 49°29' E 000°07'0 0.0
2016-Aug-18 03:34N 49°29' E 000°07'0 0.0
2016-Aug-18 02:34N 49°29' E 000°07'10 9.9
2016-Aug-18 01:33N 49°32' W 000°08'10 9.9
2016-Aug-18 00:33N 49°29' E 000°07'0 0.0
2016-Aug-17 23:33N 49°29' E 000°07'0 0.0
2016-Aug-17 22:33N 49°29' E 000°07'1 1.0
2016-Aug-17 21:34N 49°29' E 000°05'1 1.0
2016-Aug-17 20:33N 49°29' E 000°07'0 0.0
2016-Aug-17 19:33N 49°29' E 000°07'0 0.0
2016-Aug-17 18:34N 49°29' E 000°07'0 0.0
2016-Aug-17 17:33N 49°29' E 000°07'0 0.0
2016-Aug-17 16:33N 49°29' E 000°07'2 2.0
2016-Aug-17 15:33N 49°29' E 000°04'2 2.0
2016-Aug-17 14:33N 49°29' E 000°07'0 0.0
2016-Aug-17 13:33N 49°29' E 000°07'0 0.0
2016-Aug-17 12:33N 49°29' E 000°07'0 0.0
2016-Aug-17 11:33N 49°29' E 000°07'0 0.0
2016-Aug-17 10:33N 49°29' E 000°07'0 0.0
2016-Aug-17 09:33N 49°29' E 000°07'0 0.0
2016-Aug-17 08:33N 49°29' E 000°07'0 0.1
2016-Aug-17 07:33N 49°29' E 000°07'3 2.8
2016-Aug-17 06:34N 49°30' E 000°03'3 3.4
2016-Aug-17 05:34N 49°31' W 000°03'6 6.3
2016-Aug-17 04:33N 49°29' E 000°07'0 0.0
2016-Aug-17 03:33N 49°29' E 000°07'0 0.0
2016-Aug-17 02:33N 49°29' E 000°07'5 5.4
2016-Aug-17 01:33N 49°30' W 000°01'5 5.4
2016-Aug-17 00:33N 49°29' E 000°07'0 0.0
2016-Aug-16 23:33N 49°29' E 000°07'8 7.8
2016-Aug-16 22:34N 49°31' W 000°05'8 7.7
2016-Aug-16 21:33N 49°29' E 000°07'0 0.0
2016-Aug-16 20:33N 49°29' E 000°07'0 0.0
2016-Aug-16 19:33N 49°29' E 000°07'1 1.0
2016-Aug-16 18:33N 49°29' E 000°05'2 1.7
2016-Aug-16 17:34N 49°30' E 000°03'3 2.7
2016-Aug-16 16:33N 49°29' E 000°07'0 0.3
2016-Aug-16 15:33N 49°29' E 000°06'0 0.3
2016-Aug-16 14:33N 49°29' E 000°07'0 0.0
2016-Aug-16 13:33N 49°29' E 000°07'0 0.0
2016-Aug-16 12:33N 49°29' E 000°07'0 0.0
2016-Aug-16 11:33N 49°29' E 000°07'0 0.0
2016-Aug-16 10:34N 49°29' E 000°07'0 0.4
2016-Aug-16 09:33N 49°29' E 000°06'0 0.4
2016-Aug-16 08:33N 49°29' E 000°07'0 0.1
2016-Aug-16 07:34N 49°29' E 000°07'0 0.0
2016-Aug-16 04:33N 49°29' E 000°07'3 3.4
2016-Aug-16 03:34N 49°30' E 000°02'3 3.0
2016-Aug-16 02:33N 49°29' E 000°06'0 0.4
2016-Aug-16 01:33N 49°29' E 000°07'0 0.0
2016-Aug-16 00:33N 49°29' E 000°07'0 0.0
2016-Aug-15 23:33N 49°29' E 000°07'0 0.0
2016-Aug-15 22:33N 49°29' E 000°07'8 8.4
2016-Aug-15 21:33N 49°31' W 000°06'8 8.4
2016-Aug-15 20:33N 49°29' E 000°07'6 5.5
2016-Aug-15 19:33N 49°30' W 000°02'6 5.5
2016-Aug-15 18:33N 49°29' E 000°07'0 0.0
2016-Aug-15 17:33N 49°29' E 000°07'0 0.0
2016-Aug-15 16:33N 49°29' E 000°07'0 0.0
2016-Aug-15 15:33N 49°29' E 000°07'0 0.0
2016-Aug-15 14:33N 49°29' E 000°07'0 0.0
2016-Aug-15 13:33N 49°29' E 000°07'7 7.5
2016-Aug-15 12:34N 49°31' W 000°04'7 7.5
2016-Aug-15 11:33N 49°29' E 000°07'0 0.0
2016-Aug-15 10:33N 49°29' E 000°07'1 0.7
2016-Aug-15 09:33N 49°29' E 000°06'1 0.7
2016-Aug-15 08:33N 49°29' E 000°07'0 0.0
2016-Aug-15 07:33N 49°29' E 000°07'0 0.0
2016-Aug-15 06:33N 49°29' E 000°07'4 1.9
2016-Aug-15 04:34N 49°30' E 000°01'4 3.7
2016-Aug-15 03:33N 49°29' E 000°07'5 4.6
2016-Aug-15 02:34N 49°30' W 000°00'4 4.5
2016-Aug-15 01:34N 49°29' E 000°07'0 0.1
2016-Aug-15 00:33N 49°29' E 000°07'0 0.0
2016-Aug-14 23:34N 49°29' E 000°07'7 6.6
2016-Aug-14 22:33N 49°30' W 000°03'7 6.6
2016-Aug-14 21:33N 49°29' E 000°07'0 0.0
2016-Aug-14 20:33N 49°29' E 000°07'1 0.6
2016-Aug-14 19:33N 49°29' E 000°06'1 0.6
2016-Aug-14 18:33N 49°29' E 000°07'10 9.6
2016-Aug-14 17:33N 49°32' W 000°07'10 9.6
2016-Aug-14 16:33N 49°29' E 000°07'0 0.0
2016-Aug-14 15:33N 49°29' E 000°07'0 0.0
2016-Aug-14 14:34N 49°29' E 000°07'0 0.0
2016-Aug-14 13:33N 49°29' E 000°07'0 0.0
2016-Aug-14 12:33N 49°29' E 000°07'0 0.0
2016-Aug-14 11:33N 49°29' E 000°07'0 0.0
2016-Aug-14 10:33N 49°29' E 000°07'3 3.3
2016-Aug-14 09:33N 49°30' E 000°02'3 3.3
2016-Aug-14 08:33N 49°29' E 000°07'6 6.1
2016-Aug-14 07:34N 49°31' W 000°02'5 5.2
2016-Aug-14 06:34N 49°29' E 000°05'  
Track history (hours):
 
Tides and Currents Weather Stations Pressure Air Temp Water Temp Dewpoint Dewpoint Depression Visibility Wind Speed Wind Dir Waves Ship Positions

S C

Last reported at 2016-Aug-24 06:33 UTC. Time now 2016-Aug-24 06:49 UTC.
Position N 49°29' E 000°07'.

; draft 1 m.

Type: Pilot. MMSI: 227001820.

Date/timePositionNaut miles runAvg speedWind from/ knotsBaromVisibWave heightAir tempDewpointWater temp
2016-Aug-24 06:33N 49°29' E 000°07'0 0.0
2016-Aug-24 04:33N 49°29' E 000°07'8 8.3
2016-Aug-24 03:34N 49°32' W 000°05'8 8.2
2016-Aug-24 02:33N 49°29' E 000°07'3 2.7
2016-Aug-24 01:34N 49°30' E 000°03'3 2.7
2016-Aug-24 00:34N 49°29' E 000°07'1 0.8
2016-Aug-23 23:33N 49°29' E 000°06'0 0.3
2016-Aug-23 22:34N 49°29' E 000°05'0 0.2
2016-Aug-23 21:33N 49°29' E 000°05'1 0.9
2016-Aug-23 20:33N 49°29' E 000°07'2 1.6
2016-Aug-23 19:34N 49°29' E 000°04'2 1.6
2016-Aug-23 18:33N 49°29' E 000°07'4 3.6
2016-Aug-23 17:33N 49°30' E 000°01'4 3.6
2016-Aug-23 16:34N 49°29' E 000°07'0 0.0
2016-Aug-23 15:33N 49°29' E 000°07'0 0.0
2016-Aug-23 14:33N 49°29' E 000°07'0 0.0
2016-Aug-23 13:33N 49°29' E 000°07'0 0.0
2016-Aug-23 12:34N 49°29' E 000°07'8 8.0
2016-Aug-23 11:33N 49°32' W 000°05'8 8.1
2016-Aug-23 10:33N 49°29' E 000°07'0 0.0
2016-Aug-23 09:33N 49°29' E 000°07'0 0.0
2016-Aug-23 08:33N 49°29' E 000°07'4 3.6
2016-Aug-23 07:34N 49°30' E 000°01'4 3.6
2016-Aug-23 06:33N 49°29' E 000°07'0 0.0
2016-Aug-23 05:33N 49°29' E 000°07'0 0.4
2016-Aug-23 04:33N 49°29' E 000°06'9 9.5
2016-Aug-23 03:34N 49°32' W 000°08'4 3.7
2016-Aug-23 02:34N 49°31' W 000°02'6 6.0
2016-Aug-23 01:33N 49°29' E 000°07'0 0.0
2016-Aug-23 00:33N 49°29' E 000°07'0 0.0
2016-Aug-22 23:33N 49°29' E 000°07'0 0.0
2016-Aug-22 22:33N 49°29' E 000°07'0 0.1
2016-Aug-22 21:33N 49°29' E 000°07'4 4.1
2016-Aug-22 20:33N 49°30' E 000°01'4 4.2
2016-Aug-22 19:34N 49°29' E 000°07'0 0.0
2016-Aug-22 18:33N 49°29' E 000°07'0 0.0
2016-Aug-22 17:33N 49°29' E 000°07'1 0.6
2016-Aug-22 16:33N 49°29' E 000°06'6 6.0
2016-Aug-22 15:34N 49°31' W 000°03'7 6.5
2016-Aug-22 14:33N 49°29' E 000°07'1 0.6
2016-Aug-22 13:34N 49°29' E 000°06'1 0.6
2016-Aug-22 12:33N 49°29' E 000°07'1 1.4
2016-Aug-22 11:33N 49°29' E 000°05'1 1.4
2016-Aug-22 10:33N 49°29' E 000°07'8 7.6
2016-Aug-22 09:34N 49°32' W 000°04'8 7.6
2016-Aug-22 08:33N 49°29' E 000°07'3 2.7
2016-Aug-22 07:33N 49°30' E 000°03'3 2.7
2016-Aug-22 06:34N 49°29' E 000°07'0 0.1
2016-Aug-22 05:34N 49°29' E 000°07'7 7.4
2016-Aug-22 04:33N 49°31' W 000°04'6 6.0
2016-Aug-22 03:33N 49°29' E 000°05'6 6.0
2016-Aug-22 02:34N 49°31' W 000°04'6 6.1
2016-Aug-22 01:33N 49°29' E 000°05'1 1.3
2016-Aug-22 00:33N 49°29' E 000°07'9 8.8
2016-Aug-21 23:34N 49°32' W 000°06'6 6.3
2016-Aug-21 22:33N 49°30' E 000°03'1 0.9
2016-Aug-21 21:33N 49°29' E 000°04'2 1.6
2016-Aug-21 20:33N 49°29' E 000°07'1 1.2
2016-Aug-21 19:34N 49°29' E 000°05'1 0.9
2016-Aug-21 18:34N 49°29' E 000°06'3 3.2
2016-Aug-21 17:33N 49°30' E 000°02'3 3.5
2016-Aug-21 16:34N 49°29' E 000°07'4 4.2
2016-Aug-21 15:33N 49°30' E 000°01'4 4.2
2016-Aug-21 14:33N 49°29' E 000°07'0 0.0
2016-Aug-21 13:33N 49°29' E 000°07'0 0.0
2016-Aug-21 12:33N 49°29' E 000°07'8 8.1
2016-Aug-21 11:34N 49°31' W 000°05'4 4.4
2016-Aug-21 10:33N 49°30' E 000°01'4 3.9
2016-Aug-21 09:34N 49°34' W 000°01'7 6.8
2016-Aug-21 08:33N 49°29' E 000°07'0 0.0
2016-Aug-21 07:33N 49°29' E 000°07'4 4.1
2016-Aug-21 06:34N 49°30' E 000°01'4 4.0
2016-Aug-21 05:33N 49°29' E 000°07'0 0.0
2016-Aug-21 04:33N 49°29' E 000°07'0 0.0
2016-Aug-21 03:33N 49°29' E 000°07'7 7.1
2016-Aug-21 02:33N 49°31' W 000°04'3 3.2
2016-Aug-21 01:34N 49°30' E 000°01'2 2.1
2016-Aug-21 00:33N 49°29' E 000°04'2 1.9
2016-Aug-20 23:33N 49°29' E 000°07'0 0.0
2016-Aug-20 22:33N 49°29' E 000°07'0 0.0
2016-Aug-20 21:33N 49°29' E 000°07'6 6.0
2016-Aug-20 20:33N 49°31' W 000°02'6 6.0
2016-Aug-20 19:33N 49°29' E 000°07'0 0.0
2016-Aug-20 18:33N 49°29' E 000°07'2 2.4
2016-Aug-20 17:33N 49°30' E 000°03'2 2.4
2016-Aug-20 16:33N 49°29' E 000°07'0 0.0
2016-Aug-20 15:33N 49°29' E 000°07'0 0.0
2016-Aug-20 14:33N 49°29' E 000°07'0 0.0
2016-Aug-20 13:33N 49°29' E 000°07'0 0.0
2016-Aug-20 12:33N 49°29' E 000°07'2 1.6
2016-Aug-20 11:33N 49°28' E 000°09'2 1.6
2016-Aug-20 10:34N 49°29' E 000°07'1 1.4
2016-Aug-20 09:33N 49°29' E 000°05'1 1.4
2016-Aug-20 08:33N 49°29' E 000°07'2 1.5
2016-Aug-20 07:34N 49°29' E 000°04'2 1.5
2016-Aug-20 06:33N 49°29' E 000°07'5 4.9
2016-Aug-20 05:34N 49°30' W 000°00'5 4.9
2016-Aug-20 04:33N 49°29' E 000°07'5 4.8
2016-Aug-20 03:34N 49°30' W 000°00'5 4.8
2016-Aug-20 02:34N 49°29' E 000°07'0 0.0
2016-Aug-20 01:33N 49°29' E 000°07'0 0.0
2016-Aug-20 00:33N 49°29' E 000°07'0 0.1
2016-Aug-19 23:33N 49°29' E 000°07'0 0.1
2016-Aug-19 22:33N 49°29' E 000°07'6 6.5
2016-Aug-19 21:34N 49°31' W 000°03'6 6.4
2016-Aug-19 20:33N 49°29' E 000°07'0 0.0
2016-Aug-19 19:33N 49°29' E 000°07'0 0.0
2016-Aug-19 18:33N 49°29' E 000°07'2 1.7
2016-Aug-19 17:34N 49°29' E 000°04'2 1.7
2016-Aug-19 16:33N 49°29' E 000°07'0 0.0
2016-Aug-19 15:33N 49°29' E 000°07'0 0.0
2016-Aug-19 14:33N 49°29' E 000°07'9 8.5
2016-Aug-19 13:34N 49°32' W 000°06'9 8.5
2016-Aug-19 12:33N 49°29' E 000°07'0 0.0
2016-Aug-19 11:34N 49°29' E 000°07'0 0.0
2016-Aug-19 10:33N 49°29' E 000°07'0 0.0
2016-Aug-19 09:33N 49°29' E 000°07'0 0.0
2016-Aug-19 08:33N 49°29' E 000°07'0 0.0
2016-Aug-19 07:33N 49°29' E 000°07'5 4.7
2016-Aug-19 06:33N 49°30' W 000°00'4 4.4
2016-Aug-19 05:33N 49°29' E 000°06'0 0.3
2016-Aug-19 04:33N 49°29' E 000°07'0 0.0
2016-Aug-19 03:33N 49°29' E 000°07'0 0.0
2016-Aug-19 02:33N 49°29' E 000°07'3 2.6
2016-Aug-19 01:34N 49°30' E 000°03'3 2.6
2016-Aug-19 00:33N 49°29' E 000°07'0 0.0
2016-Aug-18 23:33N 49°29' E 000°07'0 0.0
2016-Aug-18 22:33N 49°29' E 000°07'5 4.8
2016-Aug-18 21:33N 49°31' E 000°00'5 4.8
2016-Aug-18 20:34N 49°29' E 000°07'0 0.0
2016-Aug-18 19:33N 49°29' E 000°07'0 0.0
2016-Aug-18 18:33N 49°29' E 000°07'8 8.4
2016-Aug-18 17:34N 49°31' W 000°06'8 8.4
2016-Aug-18 16:34N 49°29' E 000°07'0 0.0
2016-Aug-18 15:34N 49°29' E 000°07'0 0.0
2016-Aug-18 14:34N 49°29' E 000°07'0 0.0
2016-Aug-18 13:34N 49°29' E 000°07'4 4.3
2016-Aug-18 12:34N 49°30' E 000°00'4 4.3
2016-Aug-18 11:33N 49°29' E 000°07'0 0.0
2016-Aug-18 10:33N 49°29' E 000°07'1 0.6
2016-Aug-18 09:33N 49°29' E 000°06'1 0.6
2016-Aug-18 08:33N 49°29' E 000°07'0 0.0
2016-Aug-18 07:34N 49°29' E 000°07'0 0.0
2016-Aug-18 06:33N 49°29' E 000°07'0 0.0
2016-Aug-18 05:34N 49°29' E 000°07'0 0.0
2016-Aug-18 04:34N 49°29' E 000°07'0 0.0
2016-Aug-18 03:34N 49°29' E 000°07'0 0.0
2016-Aug-18 02:34N 49°29' E 000°07'10 9.9
2016-Aug-18 01:33N 49°32' W 000°08'10 9.9
2016-Aug-18 00:33N 49°29' E 000°07'0 0.0
2016-Aug-17 23:33N 49°29' E 000°07'0 0.0
2016-Aug-17 22:33N 49°29' E 000°07'1 1.0
2016-Aug-17 21:34N 49°29' E 000°05'1 1.0
2016-Aug-17 20:33N 49°29' E 000°07'0 0.0
2016-Aug-17 19:33N 49°29' E 000°07'0 0.0
2016-Aug-17 18:34N 49°29' E 000°07'0 0.0
2016-Aug-17 17:33N 49°29' E 000°07'0 0.0
2016-Aug-17 16:33N 49°29' E 000°07'2 2.0
2016-Aug-17 15:33N 49°29' E 000°04'2 2.0
2016-Aug-17 14:33N 49°29' E 000°07'0 0.0
2016-Aug-17 13:33N 49°29' E 000°07'0 0.0
2016-Aug-17 12:33N 49°29' E 000°07'0 0.0
2016-Aug-17 11:33N 49°29' E 000°07'0 0.0
2016-Aug-17 10:33N 49°29' E 000°07'0 0.0
2016-Aug-17 09:33N 49°29' E 000°07'0 0.0
2016-Aug-17 08:33N 49°29' E 000°07'0 0.1
2016-Aug-17 07:33N 49°29' E 000°07'3 2.8
2016-Aug-17 06:34N 49°30' E 000°03'3 3.4
2016-Aug-17 05:34N 49°31' W 000°03'6 6.3
2016-Aug-17 04:33N 49°29' E 000°07'0 0.0
2016-Aug-17 03:33N 49°29' E 000°07'0 0.0
2016-Aug-17 02:33N 49°29' E 000°07'5 5.4
2016-Aug-17 01:33N 49°30' W 000°01'5 5.4
2016-Aug-17 00:33N 49°29' E 000°07'0 0.0
2016-Aug-16 23:33N 49°29' E 000°07'8 7.8
2016-Aug-16 22:34N 49°31' W 000°05'8 7.7
2016-Aug-16 21:33N 49°29' E 000°07'0 0.0
2016-Aug-16 20:33N 49°29' E 000°07'0 0.0
2016-Aug-16 19:33N 49°29' E 000°07'1 1.0
2016-Aug-16 18:33N 49°29' E 000°05'2 1.7
2016-Aug-16 17:34N 49°30' E 000°03'3 2.7
2016-Aug-16 16:33N 49°29' E 000°07'0 0.3
2016-Aug-16 15:33N 49°29' E 000°06'0 0.3
2016-Aug-16 14:33N 49°29' E 000°07'0 0.0
2016-Aug-16 13:33N 49°29' E 000°07'0 0.0
2016-Aug-16 12:33N 49°29' E 000°07'0 0.0
2016-Aug-16 11:33N 49°29' E 000°07'0 0.0
2016-Aug-16 10:34N 49°29' E 000°07'0 0.4
2016-Aug-16 09:33N 49°29' E 000°06'0 0.4
2016-Aug-16 08:33N 49°29' E 000°07'0 0.1
2016-Aug-16 07:34N 49°29' E 000°07'0 0.0
2016-Aug-16 04:33N 49°29' E 000°07'3 3.4
2016-Aug-16 03:34N 49°30' E 000°02'3 3.0
2016-Aug-16 02:33N 49°29' E 000°06'0 0.4
2016-Aug-16 01:33N 49°29' E 000°07'0 0.0
2016-Aug-16 00:33N 49°29' E 000°07'0 0.0
2016-Aug-15 23:33N 49°29' E 000°07'0 0.0
2016-Aug-15 22:33N 49°29' E 000°07'8 8.4
2016-Aug-15 21:33N 49°31' W 000°06'8 8.4
2016-Aug-15 20:33N 49°29' E 000°07'6 5.5
2016-Aug-15 19:33N 49°30' W 000°02'6 5.5
2016-Aug-15 18:33N 49°29' E 000°07'0 0.0
2016-Aug-15 17:33N 49°29' E 000°07'0 0.0
2016-Aug-15 16:33N 49°29' E 000°07'0 0.0
2016-Aug-15 15:33N 49°29' E 000°07'0 0.0
2016-Aug-15 14:33N 49°29' E 000°07'0 0.0
2016-Aug-15 13:33N 49°29' E 000°07'7 7.5
2016-Aug-15 12:34N 49°31' W 000°04'7 7.5
2016-Aug-15 11:33N 49°29' E 000°07'0 0.0
2016-Aug-15 10:33N 49°29' E 000°07'1 0.7
2016-Aug-15 09:33N 49°29' E 000°06'1 0.7
2016-Aug-15 08:33N 49°29' E 000°07'0 0.0
2016-Aug-15 07:33N 49°29' E 000°07'0 0.0
2016-Aug-15 06:33N 49°29' E 000°07'4 1.9
2016-Aug-15 04:34N 49°30' E 000°01'4 3.7
2016-Aug-15 03:33N 49°29' E 000°07'5 4.6
2016-Aug-15 02:34N 49°30' W 000°00'4 4.5
2016-Aug-15 01:34N 49°29' E 000°07'0 0.1
2016-Aug-15 00:33N 49°29' E 000°07'0 0.0
2016-Aug-14 23:34N 49°29' E 000°07'7 6.6
2016-Aug-14 22:33N 49°30' W 000°03'7 6.6
2016-Aug-14 21:33N 49°29' E 000°07'0 0.0
2016-Aug-14 20:33N 49°29' E 000°07'1 0.6
2016-Aug-14 19:33N 49°29' E 000°06'1 0.6
2016-Aug-14 18:33N 49°29' E 000°07'10 9.6
2016-Aug-14 17:33N 49°32' W 000°07'10 9.6
2016-Aug-14 16:33N 49°29' E 000°07'0 0.0
2016-Aug-14 15:33N 49°29' E 000°07'0 0.0
2016-Aug-14 14:34N 49°29' E 000°07'0 0.0
2016-Aug-14 13:33N 49°29' E 000°07'0 0.0
2016-Aug-14 12:33N 49°29' E 000°07'0 0.0
2016-Aug-14 11:33N 49°29' E 000°07'0 0.0
2016-Aug-14 10:33N 49°29' E 000°07'3 3.3
2016-Aug-14 09:33N 49°30' E 000°02'3 3.3
2016-Aug-14 08:33N 49°29' E 000°07'6 6.1
2016-Aug-14 07:34N 49°31' W 000°02'5 5.2
2016-Aug-14 06:34N 49°29' E 000°05'  

Dump ship's entire track history